Date,TemperatureHighF,TemperatureAvgF,TemperatureLowF,DewpointHighF,DewpointAvgF,DewpointLowF,HumidityHigh,HumidityAvg,HumidityLow,PressureMaxIn,PressureMinIn,WindSpeedMaxMPH,WindSpeedAvgMPH,GustSpeedMaxMPH,PrecipitationSumIn
2013-2-1,70.5,56.2,43.4,42.0,35.6,26.4,72,48,30,30.39,30.20,13,2,20,0.00
2013-2-2,77.7,60.0,41.4,53.9,45.1,37.2,86,60,38,30.33,30.18,10,1,14,0.00
2013-2-3,72.5,59.6,44.5,48.1,38.2,28.8,70,47,22,30.37,30.06,8,1,14,0.00
2013-2-4,73.7,61.4,55.5,59.8,55.0,48.3,93,80,58,30.05,29.82,12,3,20,0.00
2013-2-5,82.2,64.0,48.9,54.4,49.3,43.7,94,63,29,30.01,29.89,7,0,12,0.00
2013-2-6,75.7,64.1,57.9,61.2,57.4,50.4,96,80,54,30.02,29.86,5,1,10,0.05
2013-2-7,82.9,66.8,57.9,62.6,56.1,43.5,92,71,35,30.11,29.86,9,3,21,0.00
2013-2-8,68.8,58.3,48.3,45.9,37.0,30.3,69,47,25,30.26,30.11,11,2,20,0.00
2013-2-9,68.0,58.0,52.2,65.6,53.6,37.0,94,86,49,30.13,29.82,10,1,17,0.03
2013-2-10,68.0,62.2,54.1,66.1,47.2,35.0,95,62,33,30.04,29.76,13,3,26,0.14
2013-2-11,58.2,53.1,49.5,49.4,46.3,42.6,94,78,56,30.13,30.00,9,3,16,0.37
2013-2-12,72.0,57.6,49.5,55.9,47.3,30.4,100,74,29,30.09,29.84,16,3,24,0.01
2013-2-13,64.1,50.2,39.6,39.3,34.1,30.3,75,56,32,30.19,30.06,13,3,24,0.00
2013-2-14,70.4,52.5,33.8,40.3,34.8,29.9,86,56,26,30.17,30.03,10,2,15,0.00
2013-2-15,60.9,49.6,39.1,39.4,34.5,22.1,80,57,36,30.43,30.11,11,3,16,0.00
2013-2-16,68.2,49.6,33.4,31.8,27.0,23.6,67,44,24,30.50,30.25,10,2,16,0.00
2013-2-17,69.5,54.9,36.6,50.3,36.3,27.7,73,52,30,30.25,30.00,14,5,26,0.00
2013-2-18,81.8,67.3,58.2,59.1,47.9,30.4,80,55,19,30.11,29.84,18,6,31,0.00
2013-2-19,67.5,56.7,44.3,34.2,31.5,26.5,61,40,22,30.30,30.11,11,2,15,0.00
2013-2-20,62.7,56.1,51.8,62.6,46.9,33.8,100,73,44,30.16,29.69,4,1,10,0.04
2013-2-21,78.7,67.0,53.1,65.8,45.9,28.1,100,54,18,29.88,29.60,20,5,29,0.01
2013-2-22,56.5,49.8,43.9,39.2,34.6,30.1,73,56,44,30.09,29.88,9,4,18,0.00
2013-2-23,72.6,53.5,40.4,42.5,34.3,28.1,67,50,30,30.11,29.90,9,2,13,0.00
2013-2-24,72.6,56.6,37.3,57.5,46.0,32.3,90,69,50,29.96,29.62,13,2,20,0.00
2013-2-25,62.8,55.7,46.5,58.1,37.1,22.9,96,54,22,29.87,29.57,26,11,40,0.01
2013-2-26,68.8,52.5,40.1,32.0,28.9,26.9,59,42,25,30.00,29.87,14,4,22,0.00
2013-2-27,63.7,53.4,44.3,34.0,28.3,20.9,57,39,24,30.27,29.90,20,4,28,0.00
2013-2-28,63.1,49.6,40.8,28.7,26.4,21.8,56,42,25,30.38,30.22,11,3,20,0.00